Time;durP1;ratioP1;P1;durP2;ratioP2;P2;SDS_P1;SDS_P2;PMS_P1;PMS_P2;Temp;Humidity;BMP_temperature;BMP_pressure;BME280_temperature;BME280_humidity;BME280_pressure;Samples;Min_cycle;Max_cycle;Signal;HPM_P1;HPM_P2
2023/12/26 00:00:58;;;;;;;2.80;1.20;;;11.20;99.90;;;;;;4974208;28;20030;-85
2023/12/26 00:03:25;;;;;;;1.55;1.10;;;11.20;99.90;;;;;;4972847;28;20026;-85
2023/12/26 00:05:51;;;;;;;2.35;1.17;;;11.20;99.90;;;;;;4973373;28;20030;-83
2023/12/26 00:08:17;;;;;;;1.48;0.90;;;11.20;99.90;;;;;;4974072;28;20037;-82
2023/12/26 00:10:44;;;;;;;2.00;1.10;;;11.20;99.90;;;;;;4959795;28;20053;-82
2023/12/26 00:13:10;;;;;;;1.63;1.00;;;11.20;99.90;;;;;;4975384;28;20026;-84
2023/12/26 00:15:37;;;;;;;1.95;1.10;;;11.10;99.90;;;;;;4956455;28;20046;-85
2023/12/26 00:18:03;;;;;;;2.40;1.52;;;11.10;99.90;;;;;;4975007;28;20046;-83
2023/12/26 00:20:30;;;;;;;1.98;1.42;;;11.10;99.90;;;;;;4958099;28;20043;-83
2023/12/26 00:22:56;;;;;;;2.40;1.23;;;11.10;99.90;;;;;;4973201;28;20414;-84
2023/12/26 00:25:23;;;;;;;6.55;1.92;;;11.10;99.90;;;;;;4974264;28;20041;-81
2023/12/26 00:27:49;;;;;;;2.78;1.00;;;11.00;99.90;;;;;;4985720;28;20037;-80
2023/12/26 00:30:15;;;;;;;4.03;1.23;;;11.00;99.90;;;;;;4973452;28;20034;-78
2023/12/26 00:32:43;;;;;;;2.28;1.13;;;11.00;99.90;;;;;;4974532;28;20034;-82
2023/12/26 00:35:10;;;;;;;2.78;1.05;;;11.00;99.90;;;;;;4956815;28;20026;-82
2023/12/26 00:37:37;;;;;;;2.78;1.15;;;11.00;99.90;;;;;;4967725;28;20488;-77
2023/12/26 00:40:04;;;;;;;5.20;2.30;;;10.90;99.90;;;;;;4957504;28;20038;-81
2023/12/26 00:42:30;;;;;;;2.75;1.38;;;11.00;99.90;;;;;;4972485;28;20046;-81
2023/12/26 00:44:58;;;;;;;3.67;1.33;;;10.90;99.90;;;;;;4962950;28;20049;-82
2023/12/26 00:47:25;;;;;;;2.10;1.10;;;10.90;99.90;;;;;;4972396;28;20059;-82
2023/12/26 00:49:55;;;;;;;2.33;0.85;;;10.90;99.90;;;;;;4974113;28;20034;-80
2023/12/26 00:52:22;;;;;;;2.53;0.80;;;10.90;99.90;;;;;;4968029;28;20038;-80
2023/12/26 00:54:48;;;;;;;2.53;0.80;;;10.90;99.90;;;;;;4971108;28;20049;-80
2023/12/26 00:57:16;;;;;;;4.05;1.05;;;10.90;99.90;;;;;;4965597;28;20034;-82
2023/12/26 00:59:43;;;;;;;2.15;0.80;;;10.90;99.90;;;;;;4988685;28;20045;-81
2023/12/26 01:02:10;;;;;;;3.08;0.90;;;10.90;99.90;;;;;;4962346;28;20034;-81
2023/12/26 01:04:36;;;;;;;1.65;0.70;;;10.90;99.90;;;;;;4971692;28;20027;-81
2023/12/26 01:07:05;;;;;;;2.13;0.88;;;10.90;99.90;;;;;;4955486;28;20042;-77
2023/12/26 01:09:31;;;;;;;4.72;1.02;;;10.80;99.90;;;;;;4955561;28;20500;-81
2023/12/26 01:11:58;;;;;;;1.58;0.52;;;10.80;99.90;;;;;;4947458;28;20039;-82
2023/12/26 01:14:24;;;;;;;3.10;0.65;;;10.80;99.90;;;;;;4976128;28;20042;-76
2023/12/26 01:16:50;;;;;;;6.95;0.98;;;10.80;99.90;;;;;;4974717;28;20027;-81
2023/12/26 01:19:17;;;;;;;2.08;1.08;;;10.80;99.90;;;;;;4972466;28;20043;-81
2023/12/26 01:21:43;;;;;;;8.57;3.75;;;10.80;99.90;;;;;;4972389;28;20037;-82
2023/12/26 01:24:09;;;;;;;5.60;3.45;;;10.80;99.90;;;;;;4973043;28;20034;-81
2023/12/26 01:26:36;;;;;;;5.32;3.08;;;10.80;99.90;;;;;;4972968;28;20038;-76
2023/12/26 01:29:04;;;;;;;4.28;2.58;;;10.80;99.90;;;;;;4975277;28;20038;-80
2023/12/26 01:31:35;;;;;;;8.10;3.08;;;10.80;99.90;;;;;;4973077;28;20037;-80
2023/12/26 01:34:03;;;;;;;9.02;4.20;;;10.80;99.90;;;;;;4971624;28;20502;-80
2023/12/26 01:36:29;;;;;;;7.55;5.03;;;10.80;99.90;;;;;;4978105;28;20030;-81
2023/12/26 01:38:57;;;;;;;4.28;3.42;;;10.80;99.90;;;;;;4987714;28;20034;-81
2023/12/26 01:41:24;;;;;;;8.00;4.05;;;10.80;99.90;;;;;;4985892;28;20085;-82
2023/12/26 01:43:50;;;;;;;4.38;3.50;;;10.80;99.90;;;;;;4958299;28;20057;-79
2023/12/26 01:46:17;;;;;;;6.93;3.42;;;10.80;99.90;;;;;;4974674;28;20049;-80
2023/12/26 01:48:45;;;;;;;5.75;3.42;;;10.80;99.90;;;;;;4992897;28;20045;-81
2023/12/26 01:51:13;;;;;;;5.00;3.08;;;10.70;99.90;;;;;;4966591;28;20038;-78
2023/12/26 01:53:40;;;;;;;4.25;2.80;;;10.80;99.90;;;;;;4978305;28;20035;-83
2023/12/26 01:56:13;;;;;;;6.07;2.53;;;10.80;99.90;;;;;;4979381;28;20680;-81
2023/12/26 01:58:48;;;;;;;5.90;2.88;;;10.80;99.90;;;;;;4991284;28;21040;-78
2023/12/26 02:01:16;;;;;;;6.05;2.58;;;10.80;99.90;;;;;;4966381;28;20050;-79
2023/12/26 02:03:42;;;;;;;6.30;2.70;;;10.80;99.90;;;;;;4978405;28;20061;-80
2023/12/26 02:06:09;;;;;;;8.38;3.20;;;10.80;99.90;;;;;;4975890;28;20038;-82
2023/12/26 02:08:37;;;;;;;6.00;2.20;;;10.80;99.90;;;;;;4968722;28;20470;-81
2023/12/26 02:11:04;;;;;;;5.40;2.10;;;10.80;99.90;;;;;;4968852;28;20113;-81
2023/12/26 02:13:31;;;;;;;4.75;2.40;;;10.80;99.90;;;;;;4957275;28;20042;-79
2023/12/26 02:16:01;;;;;;;5.85;2.70;;;10.80;99.90;;;;;;4959813;28;20045;-78
2023/12/26 02:18:28;;;;;;;5.68;2.53;;;10.70;99.90;;;;;;4992875;28;20034;-79
2023/12/26 02:20:55;;;;;;;3.22;1.90;;;10.70;99.90;;;;;;4968002;28;20038;-80
2023/12/26 02:23:25;;;;;;;2.85;2.03;;;10.80;99.90;;;;;;4975645;28;20037;-81
2023/12/26 02:25:54;;;;;;;3.90;2.25;;;10.80;99.90;;;;;;4976260;28;20042;-77
2023/12/26 02:28:21;;;;;;;8.07;2.58;;;10.70;99.90;;;;;;4975289;28;20038;-76
2023/12/26 02:30:50;;;;;;;7.25;2.67;;;10.80;99.90;;;;;;4992052;28;20478;-79
2023/12/26 02:33:16;;;;;;;3.80;2.15;;;10.80;99.90;;;;;;4976777;28;20030;-79
2023/12/26 02:35:43;;;;;;;4.07;1.98;;;10.80;99.90;;;;;;4977286;28;20034;-78
2023/12/26 02:38:10;;;;;;;6.38;2.30;;;10.80;99.90;;;;;;4968402;28;20474;-77
2023/12/26 02:40:37;;;;;;;8.82;2.85;;;10.80;99.90;;;;;;4977785;28;20501;-83
2023/12/26 02:43:04;;;;;;;5.10;2.40;;;10.80;99.90;;;;;;4989817;28;20045;-83
2023/12/26 02:45:30;;;;;;;4.47;1.05;;;10.80;99.90;;;;;;4967147;28;20031;-86
2023/12/26 02:47:57;;;;;;;6.38;0.75;;;10.70;99.90;;;;;;4976846;28;20058;-84
2023/12/26 02:50:23;;;;;;;3.03;0.70;;;10.60;99.90;;;;;;4962115;28;20053;-86
2023/12/26 02:52:50;;;;;;;4.72;0.50;;;10.40;99.90;;;;;;4991862;28;20049;-80
2023/12/26 02:55:18;;;;;;;3.95;0.50;;;10.30;99.90;;;;;;4977737;28;20061;-85
2023/12/26 02:57:44;;;;;;;2.55;0.50;;;10.20;99.90;;;;;;4989150;28;20034;-87
2023/12/26 03:00:12;;;;;;;2.63;0.47;;;10.10;99.90;;;;;;4958827;28;20046;-86
2023/12/26 03:02:38;;;;;;;4.35;0.50;;;10.00;99.90;;;;;;4962197;28;20034;-77
2023/12/26 03:05:05;;;;;;;4.38;0.50;;;10.00;99.90;;;;;;4976098;28;20397;-82
2023/12/26 03:07:31;;;;;;;4.18;0.43;;;9.90;99.90;;;;;;4976432;28;20536;-82
2023/12/26 03:09:58;;;;;;;6.43;0.88;;;9.90;99.90;;;;;;4988648;28;20038;-77
2023/12/26 03:12:24;;;;;;;5.05;0.70;;;9.90;99.90;;;;;;4975663;28;20033;-80
2023/12/26 03:14:51;;;;;;;5.47;1.00;;;9.80;99.90;;;;;;4986763;28;20038;-76
2023/12/26 03:17:17;;;;;;;5.25;1.17;;;9.90;99.90;;;;;;4977050;28;20041;-80
2023/12/26 03:19:43;;;;;;;6.00;1.00;;;9.90;99.90;;;;;;4974840;28;20034;-80
2023/12/26 03:22:10;;;;;;;11.80;2.08;;;9.90;99.90;;;;;;4988339;28;20034;-80
2023/12/26 03:24:36;;;;;;;6.85;1.80;;;10.00;99.90;;;;;;4974068;28;20041;-79
2023/12/26 03:27:05;;;;;;;5.95;1.95;;;10.10;99.90;;;;;;4975939;28;20030;-78
2023/12/26 03:29:32;;;;;;;5.55;1.25;;;10.10;99.90;;;;;;4942973;28;20045;-79
2023/12/26 03:31:58;;;;;;;10.70;2.90;;;10.20;99.90;;;;;;4974898;28;20042;-77
2023/12/26 03:34:25;;;;;;;11.35;2.20;;;10.20;99.90;;;;;;4960882;28;20039;-79
2023/12/26 03:36:51;;;;;;;11.20;2.38;;;10.30;99.90;;;;;;4969737;28;20034;-78
2023/12/26 03:39:17;;;;;;;12.70;3.35;;;10.30;99.90;;;;;;4972713;28;20430;-79
2023/12/26 03:41:48;;;;;;;10.43;1.80;;;10.30;99.90;;;;;;4970754;28;20502;-79
2023/12/26 03:44:16;;;;;;;8.13;1.75;;;10.30;99.90;;;;;;4949676;28;20041;-79
2023/12/26 03:46:43;;;;;;;13.88;1.85;;;10.30;99.90;;;;;;4986992;28;20482;-76
2023/12/26 03:49:10;;;;;;;6.53;1.48;;;10.30;99.90;;;;;;4977529;28;20717;-78
2023/12/26 03:51:37;;;;;;;8.45;1.90;;;10.30;99.90;;;;;;4961517;28;20057;-80
2023/12/26 03:54:03;;;;;;;10.57;1.80;;;10.30;99.90;;;;;;4972829;28;20053;-75
2023/12/26 03:56:31;;;;;;;7.38;1.63;;;10.30;99.90;;;;;;4971171;28;20038;-78
2023/12/26 03:58:58;;;;;;;9.35;1.70;;;10.20;99.90;;;;;;4960881;28;20038;-79
2023/12/26 04:01:25;;;;;;;8.98;1.65;;;10.20;99.90;;;;;;4960468;28;20038;-79
2023/12/26 04:03:52;;;;;;;6.03;1.33;;;10.20;99.90;;;;;;4965313;28;20211;-78
2023/12/26 04:06:19;;;;;;;8.77;1.55;;;10.20;99.90;;;;;;4990055;28;20561;-77
2023/12/26 04:08:46;;;;;;;10.80;1.70;;;10.20;99.90;;;;;;4955887;28;20034;-79
2023/12/26 04:11:13;;;;;;;8.20;2.00;;;10.20;99.90;;;;;;4976038;28;20061;-79
2023/12/26 04:13:39;;;;;;;8.77;1.85;;;10.20;99.90;;;;;;4973115;28;20034;-78
2023/12/26 04:16:06;;;;;;;7.88;1.40;;;10.10;99.90;;;;;;4958839;28;20030;-79
2023/12/26 04:18:33;;;;;;;10.85;1.85;;;10.10;99.90;;;;;;4989924;28;20042;-78
2023/12/26 04:21:00;;;;;;;5.57;1.52;;;10.00;99.90;;;;;;4985275;28;20047;-80
2023/12/26 04:23:27;;;;;;;11.60;1.60;;;10.00;99.90;;;;;;4975177;28;20473;-81
2023/12/26 04:25:54;;;;;;;9.20;1.48;;;9.90;99.90;;;;;;4961354;28;20038;-78
2023/12/26 04:28:20;;;;;;;10.70;1.27;;;9.90;99.90;;;;;;4975669;28;20454;-79
2023/12/26 04:30:48;;;;;;;9.73;1.35;;;9.80;99.90;;;;;;4974614;28;20042;-77
2023/12/26 04:33:15;;;;;;;11.52;1.65;;;9.70;99.90;;;;;;4957102;28;20046;-77
2023/12/26 04:35:42;;;;;;;7.55;1.05;;;9.70;99.90;;;;;;4951361;28;20038;-74
2023/12/26 04:38:09;;;;;;;10.13;1.23;;;9.60;99.90;;;;;;4958134;28;20043;-78
2023/12/26 04:40:36;;;;;;;12.13;1.23;;;9.50;99.90;;;;;;4974672;28;20402;-74
2023/12/26 04:43:05;;;;;;;7.85;0.90;;;9.40;99.90;;;;;;4955302;28;21149;-77
2023/12/26 04:45:32;;;;;;;5.97;0.75;;;9.30;99.90;;;;;;4973229;28;20397;-74
2023/12/26 04:47:58;;;;;;;9.82;1.33;;;9.30;99.90;;;;;;4975990;28;20401;-78
2023/12/26 04:50:26;;;;;;;7.15;0.80;;;9.20;99.90;;;;;;4989303;28;20050;-79
2023/12/26 04:52:53;;;;;;;7.57;1.05;;;9.10;99.90;;;;;;4974970;28;20527;-80
2023/12/26 04:55:19;;;;;;;11.30;1.42;;;9.10;99.90;;;;;;4938983;28;20037;-78
2023/12/26 04:57:46;;;;;;;11.75;0.90;;;9.00;99.90;;;;;;4970596;28;20413;-78
2023/12/26 05:00:13;;;;;;;4.75;0.60;;;9.00;99.90;;;;;;4970975;28;20039;-78
2023/12/26 05:02:39;;;;;;;6.40;0.70;;;8.90;99.90;;;;;;4956304;28;20034;-79
2023/12/26 05:05:07;;;;;;;8.70;0.90;;;8.80;99.90;;;;;;4957942;28;20045;-78
2023/12/26 05:07:33;;;;;;;6.70;1.08;;;8.80;99.90;;;;;;4959925;28;20033;-80
2023/12/26 05:10:00;;;;;;;7.57;0.93;;;8.70;99.90;;;;;;4959129;28;20058;-79
2023/12/26 05:12:28;;;;;;;12.07;1.05;;;8.70;99.90;;;;;;4976744;28;20034;-75
2023/12/26 05:14:54;;;;;;;12.52;0.90;;;8.70;99.90;;;;;;4974089;28;20038;-78
2023/12/26 05:17:21;;;;;;;14.63;1.95;;;8.70;99.90;;;;;;4990105;28;20042;-80
2023/12/26 05:19:47;;;;;;;5.60;0.93;;;8.70;99.90;;;;;;4963813;28;20038;-77
2023/12/26 05:22:14;;;;;;;15.00;0.98;;;8.60;99.90;;;;;;4955904;28;20034;-78
2023/12/26 05:24:40;;;;;;;4.50;0.80;;;8.60;99.90;;;;;;4976837;28;20038;-77
2023/12/26 05:27:07;;;;;;;8.63;1.25;;;8.60;99.90;;;;;;4934282;28;20026;-77
2023/12/26 05:29:33;;;;;;;10.98;1.15;;;8.50;99.90;;;;;;4975205;28;20041;-78
2023/12/26 05:31:59;;;;;;;15.85;1.42;;;8.50;99.90;;;;;;4934513;28;20030;-75
2023/12/26 05:34:26;;;;;;;6.45;0.90;;;8.50;99.90;;;;;;4954081;28;20047;-78
2023/12/26 05:36:52;;;;;;;11.18;1.10;;;8.50;99.90;;;;;;4990657;28;20022;-78
2023/12/26 05:39:19;;;;;;;8.32;0.68;;;8.60;99.90;;;;;;4972370;28;20041;-77
2023/12/26 05:41:45;;;;;;;13.02;1.33;;;8.60;99.90;;;;;;4973929;28;20045;-78
2023/12/26 05:44:12;;;;;;;13.68;1.35;;;8.60;99.90;;;;;;4956144;28;20398;-78
2023/12/26 05:46:39;;;;;;;10.07;1.23;;;8.60;99.90;;;;;;4973655;28;20038;-78
2023/12/26 05:49:06;;;;;;;12.02;1.45;;;8.60;99.90;;;;;;4988224;28;20042;-76
2023/12/26 05:51:32;;;;;;;11.07;1.60;;;8.60;99.90;;;;;;4939130;28;20049;-79
2023/12/26 05:53:58;;;;;;;11.80;1.00;;;8.60;99.90;;;;;;4986873;28;20039;-78
2023/12/26 05:56:25;;;;;;;10.50;1.08;;;8.60;99.90;;;;;;4972261;28;20038;-77
2023/12/26 05:58:52;;;;;;;7.20;1.40;;;8.60;99.90;;;;;;4956273;28;20026;-80
2023/12/26 06:01:18;;;;;;;8.35;1.02;;;8.50;99.90;;;;;;4987289;28;20482;-78
2023/12/26 06:03:44;;;;;;;5.10;0.82;;;8.40;99.90;;;;;;4973779;28;20053;-78
2023/12/26 06:06:12;;;;;;;10.98;0.98;;;8.40;99.90;;;;;;4937615;28;20398;-77
2023/12/26 06:08:40;;;;;;;8.13;0.93;;;8.30;99.90;;;;;;4952300;28;20366;-79
2023/12/26 06:11:10;;;;;;;10.50;1.40;;;8.20;99.90;;;;;;4973789;28;20041;-78
2023/12/26 06:13:37;;;;;;;11.20;0.98;;;8.20;99.90;;;;;;4955815;28;20386;-74
2023/12/26 06:16:04;;;;;;;11.85;0.70;;;8.10;99.90;;;;;;4974476;28;20782;-79
2023/12/26 06:18:32;;;;;;;8.77;1.17;;;8.10;99.90;;;;;;4972592;28;20038;-78
2023/12/26 06:20:58;;;;;;;11.20;0.93;;;8.00;99.90;;;;;;4990524;28;20485;-74
2023/12/26 06:23:26;;;;;;;13.95;1.55;;;8.00;99.90;;;;;;4957366;28;20668;-76
2023/12/26 06:25:57;;;;;;;10.13;1.02;;;8.00;99.90;;;;;;4978667;28;20053;-77
2023/12/26 06:28:24;;;;;;;12.98;1.00;;;7.90;99.90;;;;;;4978203;28;20045;-80
2023/12/26 06:30:50;;;;;;;10.73;0.90;;;7.80;99.90;;;;;;4991243;28;20397;-79
2023/12/26 06:33:19;;;;;;;10.68;1.00;;;7.80;99.90;;;;;;4958118;28;20042;-79
2023/12/26 06:35:45;;;;;;;15.13;1.08;;;7.70;99.90;;;;;;4978051;28;20034;-80
2023/12/26 06:38:12;;;;;;;9.70;0.70;;;7.70;99.90;;;;;;4977119;28;20466;-74
2023/12/26 06:40:42;;;;;;;15.32;1.25;;;7.70;99.90;;;;;;4976742;28;20832;-81
2023/12/26 06:43:14;;;;;;;10.80;0.90;;;7.70;99.90;;;;;;4978489;28;20026;-79
2023/12/26 06:45:41;;;;;;;9.68;0.75;;;7.70;99.90;;;;;;4955318;28;20478;-80
2023/12/26 06:48:08;;;;;;;12.40;0.90;;;7.60;99.90;;;;;;4958887;28;20045;-80
2023/12/26 06:50:36;;;;;;;10.52;0.85;;;7.60;99.90;;;;;;4961655;28;20046;-76
2023/12/26 06:53:03;;;;;;;7.90;0.80;;;7.60;99.90;;;;;;4973217;28;20035;-78
2023/12/26 06:55:29;;;;;;;7.60;0.80;;;7.50;99.90;;;;;;4974739;28;20027;-80
2023/12/26 06:57:56;;;;;;;7.65;0.82;;;7.50;99.90;;;;;;4990879;28;20045;-80
2023/12/26 07:00:24;;;;;;;8.05;0.73;;;7.40;99.90;;;;;;4945802;28;20788;-78
2023/12/26 07:02:50;;;;;;;9.40;1.33;;;7.40;99.90;;;;;;4960931;28;20038;-77
2023/12/26 07:05:17;;;;;;;11.10;1.20;;;7.40;99.90;;;;;;4976501;28;20031;-81
2023/12/26 07:07:44;;;;;;;9.70;1.00;;;7.40;99.90;;;;;;4992519;28;20038;-77
2023/12/26 07:10:10;;;;;;;11.13;1.00;;;7.40;99.90;;;;;;4973935;28;20584;-79
2023/12/26 07:12:37;;;;;;;14.35;1.00;;;7.40;99.90;;;;;;4975289;28;20030;-80
2023/12/26 07:15:05;;;;;;;15.00;1.73;;;7.40;99.90;;;;;;4971903;28;20042;-78
2023/12/26 07:17:32;;;;;;;15.70;1.70;;;7.40;99.90;;;;;;4977287;28;20478;-80
2023/12/26 07:19:59;;;;;;;10.10;0.70;;;7.40;99.90;;;;;;4973643;28;20486;-77
2023/12/26 07:22:25;;;;;;;11.02;1.00;;;7.40;99.90;;;;;;4961886;28;20042;-76
2023/12/26 07:24:52;;;;;;;13.68;1.13;;;7.30;99.90;;;;;;4977641;28;20034;-76
2023/12/26 07:27:18;;;;;;;8.45;0.88;;;7.30;99.90;;;;;;4987236;28;20100;-78
2023/12/26 07:29:45;;;;;;;9.73;0.90;;;7.30;99.90;;;;;;4989560;28;20038;-80
2023/12/26 07:32:11;;;;;;;14.35;1.17;;;7.30;99.90;;;;;;4973006;28;20034;-79
2023/12/26 07:34:40;;;;;;;16.55;1.90;;;7.20;99.90;;;;;;4990311;28;20038;-78
2023/12/26 07:37:07;;;;;;;11.05;1.10;;;7.20;99.90;;;;;;4976391;28;20034;-80
2023/12/26 07:39:33;;;;;;;7.95;1.17;;;7.20;99.90;;;;;;4975421;28;20042;-81
2023/12/26 07:42:00;;;;;;;10.00;1.02;;;7.20;99.90;;;;;;4990219;28;20711;-75
2023/12/26 07:44:30;;;;;;;13.20;1.20;;;7.10;99.90;;;;;;4961231;28;20441;-82
2023/12/26 07:46:56;;;;;;;8.15;0.95;;;7.10;99.90;;;;;;4983486;28;20034;-75
2023/12/26 07:49:24;;;;;;;14.18;2.28;;;7.10;99.90;;;;;;4977507;28;20770;-78
2023/12/26 07:51:50;;;;;;;12.02;1.38;;;7.10;99.90;;;;;;4961446;28;20053;-83
2023/12/26 07:54:17;;;;;;;16.50;1.00;;;7.10;99.90;;;;;;4975999;28;20381;-80
2023/12/26 07:56:43;;;;;;;13.02;1.40;;;7.10;99.90;;;;;;4959432;28;20034;-80
2023/12/26 07:59:10;;;;;;;13.18;1.02;;;7.00;99.90;;;;;;4974068;28;20050;-80
2023/12/26 08:01:36;;;;;;;12.23;0.90;;;7.00;99.90;;;;;;4958180;28;20482;-81
2023/12/26 08:04:03;;;;;;;10.93;1.20;;;7.00;99.90;;;;;;4963715;28;20057;-82
2023/12/26 08:06:31;;;;;;;14.50;1.42;;;7.10;99.90;;;;;;4975662;28;20030;-80
2023/12/26 08:08:58;;;;;;;8.35;0.88;;;7.10;99.90;;;;;;4973355;28;20038;-80
2023/12/26 08:11:24;;;;;;;15.43;1.63;;;7.10;99.90;;;;;;4973961;28;20042;-82
2023/12/26 08:13:51;;;;;;;11.95;1.40;;;7.10;99.90;;;;;;4957898;28;20061;-78
2023/12/26 08:16:17;;;;;;;8.77;1.20;;;7.10;99.90;;;;;;4976588;28;20497;-78
2023/12/26 08:18:43;;;;;;;19.90;2.13;;;7.20;99.90;;;;;;4962653;28;20045;-81
2023/12/26 08:21:10;;;;;;;11.45;1.20;;;7.30;99.90;;;;;;4971877;28;20533;-78
2023/12/26 08:23:36;;;;;;;11.27;0.93;;;7.40;99.90;;;;;;4960307;28;20458;-80
2023/12/26 08:26:07;;;;;;;12.10;1.52;;;7.50;99.90;;;;;;4976309;28;20039;-78
2023/12/26 08:28:33;;;;;;;14.40;1.33;;;7.50;99.90;;;;;;4992113;28;20038;-81
2023/12/26 08:31:00;;;;;;;15.23;1.20;;;7.50;99.90;;;;;;4957893;28;20694;-82
2023/12/26 08:33:26;;;;;;;17.10;1.00;;;7.50;99.90;;;;;;4934564;28;20022;-79
2023/12/26 08:35:53;;;;;;;12.63;1.35;;;7.50;99.90;;;;;;4970257;28;20038;-82
2023/12/26 08:38:19;;;;;;;8.23;0.82;;;7.50;99.90;;;;;;4973217;28;20038;-82
2023/12/26 08:40:45;;;;;;;7.70;0.80;;;7.60;99.90;;;;;;4958161;28;20066;-78
2023/12/26 08:43:12;;;;;;;10.15;1.00;;;7.50;99.90;;;;;;4979344;28;20023;-82
2023/12/26 08:45:38;;;;;;;12.73;1.10;;;7.50;99.90;;;;;;4969862;28;20045;-80
2023/12/26 08:48:05;;;;;;;8.18;1.13;;;7.60;99.90;;;;;;4967428;28;20379;-81
2023/12/26 08:50:32;;;;;;;8.23;1.10;;;7.50;99.90;;;;;;4969695;28;20469;-82
2023/12/26 08:52:58;;;;;;;11.68;1.02;;;7.50;99.90;;;;;;4970632;28;20038;-80
2023/12/26 08:55:25;;;;;;;8.90;1.10;;;7.50;99.90;;;;;;4973268;28;20038;-82
2023/12/26 08:57:51;;;;;;;9.70;1.05;;;7.50;99.90;;;;;;4984460;28;20034;-80
2023/12/26 09:00:19;;;;;;;7.97;0.90;;;7.50;99.90;;;;;;4973547;28;20038;-81
2023/12/26 09:02:45;;;;;;;9.82;0.98;;;7.60;99.90;;;;;;4975245;28;20391;-82
2023/12/26 09:05:12;;;;;;;9.38;1.35;;;7.60;99.90;;;;;;4941010;28;20034;-80
2023/12/26 09:07:40;;;;;;;13.32;1.80;;;7.70;99.90;;;;;;4978452;28;20038;-80
2023/12/26 09:10:06;;;;;;;13.32;1.70;;;7.70;99.90;;;;;;4969090;28;20034;-80
2023/12/26 09:12:33;;;;;;;9.52;1.08;;;7.70;99.90;;;;;;4976029;28;20038;-83
2023/12/26 09:14:59;;;;;;;13.85;1.65;;;7.70;99.90;;;;;;4979397;28;20038;-78
2023/12/26 09:17:26;;;;;;;11.20;1.27;;;7.70;99.90;;;;;;4974265;28;20042;-76
2023/12/26 09:19:52;;;;;;;10.68;1.00;;;7.70;99.90;;;;;;4974683;28;20037;-75
2023/12/26 09:22:18;;;;;;;15.20;1.52;;;7.70;99.90;;;;;;4973916;28;20047;-78
2023/12/26 09:24:45;;;;;;;9.45;1.20;;;7.70;99.90;;;;;;4985853;28;20057;-81
2023/12/26 09:27:11;;;;;;;8.15;1.15;;;7.70;99.90;;;;;;4974957;28;20030;-80
2023/12/26 09:29:38;;;;;;;6.43;1.30;;;7.60;99.90;;;;;;4976978;28;20057;-77
2023/12/26 09:32:05;;;;;;;15.27;1.88;;;7.70;99.90;;;;;;4973190;28;20050;-79
2023/12/26 09:34:31;;;;;;;16.58;1.90;;;7.70;99.90;;;;;;4958097;28;20375;-79
2023/12/26 09:36:58;;;;;;;19.33;1.58;;;7.70;99.90;;;;;;4974260;28;20034;-81
2023/12/26 09:39:25;;;;;;;15.65;2.25;;;7.70;99.90;;;;;;4972521;28;20030;-73
2023/12/26 09:41:52;;;;;;;14.75;2.05;;;7.80;99.90;;;;;;4956776;28;20478;-77
2023/12/26 09:44:20;;;;;;;13.25;1.38;;;7.90;99.90;;;;;;4938748;28;20034;-81
2023/12/26 09:46:47;;;;;;;14.82;1.80;;;8.00;99.90;;;;;;4976236;28;20077;-73
2023/12/26 09:49:15;;;;;;;15.57;1.70;;;8.10;99.90;;;;;;4974815;28;20041;-81
2023/12/26 09:51:44;;;;;;;16.70;1.52;;;8.20;99.90;;;;;;4977841;28;20034;-81
2023/12/26 09:54:12;;;;;;;10.95;1.38;;;8.30;99.90;;;;;;4977995;28;20034;-79
2023/12/26 09:56:42;;;;;;;14.25;1.27;;;8.50;99.90;;;;;;4961634;28;20030;-80
2023/12/26 09:59:10;;;;;;;20.63;1.77;;;8.60;99.90;;;;;;4979218;28;20034;-79
2023/12/26 10:01:36;;;;;;;17.02;1.73;;;8.80;99.90;;;;;;4975506;28;20037;-79
2023/12/26 10:04:03;;;;;;;14.93;1.70;;;9.00;99.90;;;;;;4944608;28;20069;-75
2023/12/26 10:06:30;;;;;;;13.48;1.35;;;9.10;99.90;;;;;;4978722;28;20030;-80
2023/12/26 10:08:57;;;;;;;12.98;1.52;;;9.30;99.90;;;;;;4963543;28;20049;-80
2023/12/26 10:11:27;;;;;;;11.85;1.38;;;9.50;99.90;;;;;;4975985;28;20039;-81
2023/12/26 10:13:54;;;;;;;12.27;1.50;;;9.80;99.90;;;;;;4991683;28;20030;-77
2023/12/26 10:16:21;;;;;;;14.38;1.73;;;10.00;99.90;;;;;;4992715;28;20041;-78
2023/12/26 10:18:50;;;;;;;10.88;1.30;;;10.20;99.90;;;;;;4977020;28;20403;-79
2023/12/26 10:21:17;;;;;;;13.00;1.80;;;10.30;99.90;;;;;;4970914;28;20069;-81
2023/12/26 10:23:45;;;;;;;10.70;1.45;;;10.40;99.90;;;;;;4959949;28;20505;-80
2023/12/26 10:26:11;;;;;;;13.57;2.00;;;10.30;99.90;;;;;;4976990;28;20034;-78
2023/12/26 10:28:39;;;;;;;14.23;1.35;;;10.10;99.90;;;;;;4988121;28;20038;-81
2023/12/26 10:31:13;;;;;;;23.55;2.13;;;9.90;99.90;;;;;;4977458;28;20030;-72
2023/12/26 10:33:41;;;;;;;14.82;1.88;;;9.80;99.90;;;;;;4988285;28;20034;-79
2023/12/26 10:36:10;;;;;;;15.20;1.40;;;9.60;99.90;;;;;;4974830;28;20041;-78
2023/12/26 10:38:39;;;;;;;15.88;1.58;;;9.50;99.90;;;;;;4976547;28;20344;-79
2023/12/26 10:41:08;;;;;;;13.45;1.20;;;9.40;99.90;;;;;;4974691;28;20029;-80
2023/12/26 10:43:39;;;;;;;14.52;1.50;;;9.30;99.90;;;;;;4972566;28;20034;-80
2023/12/26 10:46:07;;;;;;;14.48;1.48;;;9.30;99.90;;;;;;4976077;28;20054;-78
2023/12/26 10:48:35;;;;;;;20.70;1.45;;;9.20;99.90;;;;;;4975843;28;20066;-73
2023/12/26 10:51:01;;;;;;;14.60;1.75;;;9.20;99.90;;;;;;4975525;28;20030;-79
2023/12/26 10:54:00;;;;;;;17.92;1.95;;;9.20;99.90;;;;;;4992323;28;20378;-81
2023/12/26 10:56:31;;;;;;;22.33;1.85;;;9.20;99.90;;;;;;4971307;28;20042;-79
2023/12/26 10:58:59;;;;;;;16.98;2.05;;;9.30;99.90;;;;;;4959043;28;20046;-80
2023/12/26 13:51:43;;;;;;;10.38;1.02;;;9.30;99.90;;;;;;4979960;28;20034;-74
2023/12/26 13:54:12;;;;;;;11.48;1.30;;;9.40;99.90;;;;;;4975430;28;20034;-76
2023/12/26 13:57:16;;;;;;;8.23;1.10;;;9.40;99.90;;;;;;4974602;28;20500;-77
2023/12/26 14:00:20;;;;;;;9.18;0.80;;;9.40;99.90;;;;;;4943239;28;20046;-78
2023/12/26 14:02:47;;;;;;;10.50;1.33;;;9.40;99.90;;;;;;4978648;28;20053;-76
2023/12/26 14:05:13;;;;;;;11.30;1.42;;;9.40;99.90;;;;;;4961675;28;20375;-77
2023/12/26 14:08:18;;;;;;;9.00;1.15;;;9.30;99.90;;;;;;4986715;28;20038;-75
2023/12/26 14:11:23;;;;;;;6.95;1.27;;;9.40;99.90;;;;;;4961879;28;20034;-76
2023/12/26 14:14:27;;;;;;;9.60;1.85;;;9.30;99.90;;;;;;4959412;28;20049;-77
2023/12/26 14:16:53;;;;;;;6.03;1.48;;;9.30;99.90;;;;;;4976685;28;20026;-79
2023/12/26 14:19:20;;;;;;;7.40;1.08;;;9.30;99.90;;;;;;4981674;28;20023;-77
2023/12/26 14:21:47;;;;;;;6.10;0.70;;;9.30;99.90;;;;;;4973317;28;20038;-73
2023/12/26 14:24:51;;;;;;;10.63;1.08;;;9.20;99.90;;;;;;4962444;28;20061;-77
2023/12/26 14:27:56;;;;;;;6.30;0.98;;;9.30;99.90;;;;;;4961717;28;20041;-78
2023/12/26 14:30:22;;;;;;;6.45;0.90;;;9.20;99.90;;;;;;4957643;28;20286;-77
2023/12/26 14:32:49;;;;;;;6.85;1.02;;;9.20;99.90;;;;;;4976946;28;20035;-76
2023/12/26 14:35:52;;;;;;;5.50;0.80;;;9.20;99.90;;;;;;4977057;28;20037;-77
2023/12/26 14:38:57;;;;;;;4.97;0.88;;;9.20;99.90;;;;;;4974831;28;20582;-77
2023/12/26 14:41:23;;;;;;;6.07;1.52;;;9.10;99.90;;;;;;4961588;28;20030;-77
2023/12/26 14:43:53;;;;;;;7.32;1.25;;;9.10;99.90;;;;;;4959308;28;20039;-77
2023/12/26 14:46:19;;;;;;;8.05;2.22;;;9.10;99.90;;;;;;4959405;28;20049;-76
2023/12/26 14:48:46;;;;;;;6.95;2.25;;;9.10;99.90;;;;;;4967482;28;20038;-79
2023/12/26 14:51:12;;;;;;;9.30;3.67;;;9.10;99.90;;;;;;4977504;28;20026;-77
2023/12/26 14:53:39;;;;;;;10.07;2.80;;;9.10;99.90;;;;;;4975065;28;20038;-76
2023/12/26 14:56:05;;;;;;;9.60;2.33;;;9.10;99.90;;;;;;4936741;28;20374;-78
2023/12/26 14:58:32;;;;;;;8.80;1.98;;;9.10;99.90;;;;;;4976593;28;20429;-76
2023/12/26 15:00:58;;;;;;;4.90;1.20;;;9.10;99.90;;;;;;4959750;28;20042;-73
2023/12/26 15:03:25;;;;;;;8.80;1.40;;;9.10;99.90;;;;;;4977436;28;20038;-76
2023/12/26 15:05:56;;;;;;;10.23;1.38;;;9.10;99.90;;;;;;4975629;28;20706;-73
2023/12/26 15:08:22;;;;;;;8.18;1.05;;;9.00;99.90;;;;;;4967237;28;20475;-74
2023/12/26 15:10:49;;;;;;;10.07;1.42;;;9.00;99.90;;;;;;4976842;28;20038;-74
2023/12/26 15:13:16;;;;;;;9.82;1.20;;;9.00;99.90;;;;;;4961069;28;20045;-77
2023/12/26 15:15:42;;;;;;;8.45;0.85;;;9.00;99.90;;;;;;4977680;28;20031;-77
2023/12/26 15:18:10;;;;;;;7.82;0.93;;;9.00;99.90;;;;;;4957641;28;20034;-77
2023/12/26 15:20:37;;;;;;;10.77;1.77;;;9.00;99.90;;;;;;4975451;28;20038;-78
2023/12/26 15:23:06;;;;;;;3.97;0.93;;;9.00;99.90;;;;;;4977585;28;20042;-76
2023/12/26 15:25:33;;;;;;;9.02;1.60;;;9.00;99.90;;;;;;4977435;28;20033;-78
2023/12/26 15:28:00;;;;;;;7.78;1.98;;;9.00;99.90;;;;;;4969063;28;20402;-76
2023/12/26 15:30:26;;;;;;;8.25;1.55;;;9.00;99.90;;;;;;4977081;28;20112;-76
2023/12/26 15:32:53;;;;;;;6.13;1.08;;;8.90;99.90;;;;;;4983006;28;20035;-77
2023/12/26 15:35:19;;;;;;;5.45;1.10;;;8.90;99.90;;;;;;4976569;28;20038;-78
2023/12/26 15:37:45;;;;;;;9.38;1.05;;;8.90;99.90;;;;;;4959050;28;20061;-73
2023/12/26 15:40:12;;;;;;;9.73;1.42;;;8.90;99.90;;;;;;4973830;28;20038;-77
2023/12/26 15:42:41;;;;;;;7.75;1.70;;;8.90;99.90;;;;;;4975131;28;20383;-74
2023/12/26 15:45:08;;;;;;;5.68;1.25;;;8.90;99.90;;;;;;4976943;28;20062;-77